sensor_id;sensor_type;location;lat;lon;timestamp;temperature;humidity
24450;DHT22;13349;50.984;5.822;2023-12-20T00:00:35;7.90;99.90
24450;DHT22;13349;50.984;5.822;2023-12-20T00:03:04;7.80;99.90
24450;DHT22;13349;50.984;5.822;2023-12-20T00:05:31;7.70;99.90
24450;DHT22;13349;50.984;5.822;2023-12-20T00:07:59;7.80;99.90
24450;DHT22;13349;50.984;5.822;2023-12-20T00:10:25;7.80;99.90
24450;DHT22;13349;50.984;5.822;2023-12-20T00:12:52;7.70;99.90
24450;DHT22;13349;50.984;5.822;2023-12-20T00:15:19;7.60;99.90
24450;DHT22;13349;50.984;5.822;2023-12-20T00:17:46;7.50;99.90
24450;DHT22;13349;50.984;5.822;2023-12-20T00:20:14;7.30;99.90
24450;DHT22;13349;50.984;5.822;2023-12-20T00:22:41;7.20;99.90
24450;DHT22;13349;50.984;5.822;2023-12-20T00:25:08;7.10;99.90
24450;DHT22;13349;50.984;5.822;2023-12-20T00:27:35;7.00;99.90
24450;DHT22;13349;50.984;5.822;2023-12-20T00:30:02;6.90;99.90
24450;DHT22;13349;50.984;5.822;2023-12-20T00:32:29;6.80;99.90
24450;DHT22;13349;50.984;5.822;2023-12-20T00:34:56;6.70;99.90
24450;DHT22;13349;50.984;5.822;2023-12-20T00:37:24;6.70;99.90
24450;DHT22;13349;50.984;5.822;2023-12-20T00:39:51;6.60;99.90
24450;DHT22;13349;50.984;5.822;2023-12-20T00:42:18;6.50;99.90
24450;DHT22;13349;50.984;5.822;2023-12-20T00:44:45;6.50;99.90
24450;DHT22;13349;50.984;5.822;2023-12-20T00:47:12;6.40;99.90
24450;DHT22;13349;50.984;5.822;2023-12-20T00:49:39;6.40;99.90
24450;DHT22;13349;50.984;5.822;2023-12-20T00:52:06;6.30;99.90
24450;DHT22;13349;50.984;5.822;2023-12-20T00:54:35;6.30;99.90
24450;DHT22;13349;50.984;5.822;2023-12-20T00:57:02;6.20;99.90
24450;DHT22;13349;50.984;5.822;2023-12-20T00:59:28;6.10;99.90
24450;DHT22;13349;50.984;5.822;2023-12-20T01:01:55;6.00;99.90
24450;DHT22;13349;50.984;5.822;2023-12-20T01:04:22;6.00;99.90
24450;DHT22;13349;50.984;5.822;2023-12-20T01:06:49;6.10;99.90
24450;DHT22;13349;50.984;5.822;2023-12-20T01:09:16;6.10;99.90
24450;DHT22;13349;50.984;5.822;2023-12-20T01:11:45;6.20;99.90
24450;DHT22;13349;50.984;5.822;2023-12-20T01:14:12;6.20;99.90
24450;DHT22;13349;50.984;5.822;2023-12-20T01:16:39;6.20;99.90
24450;DHT22;13349;50.984;5.822;2023-12-20T01:19:06;6.20;99.90
24450;DHT22;13349;50.984;5.822;2023-12-20T01:21:33;6.20;99.90
24450;DHT22;13349;50.984;5.822;2023-12-20T01:23:59;6.20;99.90
24450;DHT22;13349;50.984;5.822;2023-12-20T01:26:26;6.20;99.90
24450;DHT22;13349;50.984;5.822;2023-12-20T01:28:55;6.10;99.90
24450;DHT22;13349;50.984;5.822;2023-12-20T01:31:22;6.10;99.90
24450;DHT22;13349;50.984;5.822;2023-12-20T01:33:49;6.10;99.90
24450;DHT22;13349;50.984;5.822;2023-12-20T01:36:16;6.10;99.90
24450;DHT22;13349;50.984;5.822;2023-12-20T01:38:43;6.00;99.90
24450;DHT22;13349;50.984;5.822;2023-12-20T01:41:09;6.00;99.90
24450;DHT22;13349;50.984;5.822;2023-12-20T01:43:36;5.90;99.90
24450;DHT22;13349;50.984;5.822;2023-12-20T01:46:05;6.00;99.90
24450;DHT22;13349;50.984;5.822;2023-12-20T01:48:32;6.00;99.90
24450;DHT22;13349;50.984;5.822;2023-12-20T01:50:59;6.00;99.90
24450;DHT22;13349;50.984;5.822;2023-12-20T01:53:26;6.00;99.90
24450;DHT22;13349;50.984;5.822;2023-12-20T01:55:54;5.90;99.90
24450;DHT22;13349;50.984;5.822;2023-12-20T01:58:21;5.90;99.90
24450;DHT22;13349;50.984;5.822;2023-12-20T02:00:48;5.80;99.90
24450;DHT22;13349;50.984;5.822;2023-12-20T02:03:17;5.90;99.90
24450;DHT22;13349;50.984;5.822;2023-12-20T02:05:44;5.90;99.90
24450;DHT22;13349;50.984;5.822;2023-12-20T02:08:12;5.90;99.90
24450;DHT22;13349;50.984;5.822;2023-12-20T02:10:39;5.90;99.90
24450;DHT22;13349;50.984;5.822;2023-12-20T02:13:06;5.80;99.90
24450;DHT22;13349;50.984;5.822;2023-12-20T02:15:33;5.80;99.90
24450;DHT22;13349;50.984;5.822;2023-12-20T02:18:02;5.70;99.90
24450;DHT22;13349;50.984;5.822;2023-12-20T02:20:30;5.70;99.90
24450;DHT22;13349;50.984;5.822;2023-12-20T02:22:59;5.80;99.90
24450;DHT22;13349;50.984;5.822;2023-12-20T02:25:25;5.80;99.90
24450;DHT22;13349;50.984;5.822;2023-12-20T02:27:52;5.80;99.90
24450;DHT22;13349;50.984;5.822;2023-12-20T02:30:19;5.80;99.90
24450;DHT22;13349;50.984;5.822;2023-12-20T02:32:46;5.80;99.90
24450;DHT22;13349;50.984;5.822;2023-12-20T02:35:14;5.80;99.90
24450;DHT22;13349;50.984;5.822;2023-12-20T02:37:40;5.80;99.90
24450;DHT22;13349;50.984;5.822;2023-12-20T02:40:09;5.90;99.90
24450;DHT22;13349;50.984;5.822;2023-12-20T02:42:36;5.90;99.90
24450;DHT22;13349;50.984;5.822;2023-12-20T02:45:03;5.90;99.90
24450;DHT22;13349;50.984;5.822;2023-12-20T02:47:30;5.80;99.90
24450;DHT22;13349;50.984;5.822;2023-12-20T02:49:57;5.80;99.90
24450;DHT22;13349;50.984;5.822;2023-12-20T02:52:24;5.70;99.90
24450;DHT22;13349;50.984;5.822;2023-12-20T02:54:51;5.70;99.90
24450;DHT22;13349;50.984;5.822;2023-12-20T02:57:19;5.70;99.90
24450;DHT22;13349;50.984;5.822;2023-12-20T02:59:46;5.60;99.90
24450;DHT22;13349;50.984;5.822;2023-12-20T03:02:13;5.60;99.90
24450;DHT22;13349;50.984;5.822;2023-12-20T03:04:40;5.60;99.90
24450;DHT22;13349;50.984;5.822;2023-12-20T03:07:07;5.70;99.90
24450;DHT22;13349;50.984;5.822;2023-12-20T03:09:34;5.70;99.90
24450;DHT22;13349;50.984;5.822;2023-12-20T03:12:01;5.80;99.90
24450;DHT22;13349;50.984;5.822;2023-12-20T03:14:29;5.80;99.90
24450;DHT22;13349;50.984;5.822;2023-12-20T03:16:56;5.70;99.90
24450;DHT22;13349;50.984;5.822;2023-12-20T03:19:23;5.70;99.90
24450;DHT22;13349;50.984;5.822;2023-12-20T03:21:50;5.60;99.90
24450;DHT22;13349;50.984;5.822;2023-12-20T03:24:18;5.50;99.90
24450;DHT22;13349;50.984;5.822;2023-12-20T03:26:45;5.50;99.90
24450;DHT22;13349;50.984;5.822;2023-12-20T03:29:12;5.50;99.90
24450;DHT22;13349;50.984;5.822;2023-12-20T03:31:40;5.50;99.90
24450;DHT22;13349;50.984;5.822;2023-12-20T03:34:07;5.60;99.90
24450;DHT22;13349;50.984;5.822;2023-12-20T03:36:34;5.60;99.90
24450;DHT22;13349;50.984;5.822;2023-12-20T03:39:01;5.60;99.90
24450;DHT22;13349;50.984;5.822;2023-12-20T03:41:28;5.60;99.90
24450;DHT22;13349;50.984;5.822;2023-12-20T03:43:55;5.50;99.90
24450;DHT22;13349;50.984;5.822;2023-12-20T03:46:22;5.50;99.90
24450;DHT22;13349;50.984;5.822;2023-12-20T03:48:50;5.40;99.90
24450;DHT22;13349;50.984;5.822;2023-12-20T03:51:17;5.40;99.90
24450;DHT22;13349;50.984;5.822;2023-12-20T03:53:44;5.40;99.90
24450;DHT22;13349;50.984;5.822;2023-12-20T03:56:11;5.40;99.90
24450;DHT22;13349;50.984;5.822;2023-12-20T03:58:37;5.30;99.90
24450;DHT22;13349;50.984;5.822;2023-12-20T04:01:08;5.30;99.90
24450;DHT22;13349;50.984;5.822;2023-12-20T04:03:35;5.20;99.90
24450;DHT22;13349;50.984;5.822;2023-12-20T04:06:04;5.20;99.90
24450;DHT22;13349;50.984;5.822;2023-12-20T04:08:31;5.20;99.90
24450;DHT22;13349;50.984;5.822;2023-12-20T04:10:57;5.30;99.90
24450;DHT22;13349;50.984;5.822;2023-12-20T04:13:24;5.30;99.90
24450;DHT22;13349;50.984;5.822;2023-12-20T04:15:51;5.30;99.90
24450;DHT22;13349;50.984;5.822;2023-12-20T04:18:18;5.30;99.90
24450;DHT22;13349;50.984;5.822;2023-12-20T04:20:45;5.30;99.90
24450;DHT22;13349;50.984;5.822;2023-12-20T04:23:13;5.40;99.90
24450;DHT22;13349;50.984;5.822;2023-12-20T04:25:40;5.40;99.90
24450;DHT22;13349;50.984;5.822;2023-12-20T04:28:07;5.40;99.90
24450;DHT22;13349;50.984;5.822;2023-12-20T04:30:34;5.40;99.90
24450;DHT22;13349;50.984;5.822;2023-12-20T04:33:01;5.40;99.90
24450;DHT22;13349;50.984;5.822;2023-12-20T04:35:29;5.40;99.90
24450;DHT22;13349;50.984;5.822;2023-12-20T04:37:55;5.50;99.90
24450;DHT22;13349;50.984;5.822;2023-12-20T04:40:24;5.50;99.90
24450;DHT22;13349;50.984;5.822;2023-12-20T04:42:51;5.50;99.90
24450;DHT22;13349;50.984;5.822;2023-12-20T04:45:18;5.50;99.90
24450;DHT22;13349;50.984;5.822;2023-12-20T04:47:45;5.50;99.90
24450;DHT22;13349;50.984;5.822;2023-12-20T04:50:12;5.50;99.90
24450;DHT22;13349;50.984;5.822;2023-12-20T04:52:40;5.50;99.90
24450;DHT22;13349;50.984;5.822;2023-12-20T04:55:07;5.60;99.90
24450;DHT22;13349;50.984;5.822;2023-12-20T04:57:35;5.60;99.90
24450;DHT22;13349;50.984;5.822;2023-12-20T05:00:02;5.60;99.90
24450;DHT22;13349;50.984;5.822;2023-12-20T05:02:30;5.60;99.90
24450;DHT22;13349;50.984;5.822;2023-12-20T05:04:57;5.70;99.90
24450;DHT22;13349;50.984;5.822;2023-12-20T05:07:23;5.60;99.90
24450;DHT22;13349;50.984;5.822;2023-12-20T05:09:50;5.70;99.90
24450;DHT22;13349;50.984;5.822;2023-12-20T05:12:17;5.70;99.90
24450;DHT22;13349;50.984;5.822;2023-12-20T05:14:46;5.70;99.90
24450;DHT22;13349;50.984;5.822;2023-12-20T05:17:13;5.80;99.90
24450;DHT22;13349;50.984;5.822;2023-12-20T05:19:40;5.80;99.90
24450;DHT22;13349;50.984;5.822;2023-12-20T05:22:06;5.80;99.90
24450;DHT22;13349;50.984;5.822;2023-12-20T05:24:33;5.80;99.90
24450;DHT22;13349;50.984;5.822;2023-12-20T05:27:00;5.80;99.90
24450;DHT22;13349;50.984;5.822;2023-12-20T05:29:27;5.80;99.90
24450;DHT22;13349;50.984;5.822;2023-12-20T05:31:55;5.80;99.90
24450;DHT22;13349;50.984;5.822;2023-12-20T05:34:22;5.90;99.90
24450;DHT22;13349;50.984;5.822;2023-12-20T05:36:49;5.80;99.90
24450;DHT22;13349;50.984;5.822;2023-12-20T05:39:16;5.80;99.90
24450;DHT22;13349;50.984;5.822;2023-12-20T05:41:43;5.90;99.90
24450;DHT22;13349;50.984;5.822;2023-12-20T05:44:10;5.90;99.90
24450;DHT22;13349;50.984;5.822;2023-12-20T05:46:37;5.80;99.90
24450;DHT22;13349;50.984;5.822;2023-12-20T05:49:06;5.80;99.90
24450;DHT22;13349;50.984;5.822;2023-12-20T05:51:33;5.80;99.90
24450;DHT22;13349;50.984;5.822;2023-12-20T05:54:00;5.70;99.90
24450;DHT22;13349;50.984;5.822;2023-12-20T05:56:27;5.80;99.90
24450;DHT22;13349;50.984;5.822;2023-12-20T05:58:54;5.80;99.90
24450;DHT22;13349;50.984;5.822;2023-12-20T06:01:21;5.80;99.90
24450;DHT22;13349;50.984;5.822;2023-12-20T06:03:47;5.80;99.90
24450;DHT22;13349;50.984;5.822;2023-12-20T06:06:16;5.80;99.90
24450;DHT22;13349;50.984;5.822;2023-12-20T06:08:43;5.80;99.90
24450;DHT22;13349;50.984;5.822;2023-12-20T06:11:10;5.80;99.90
24450;DHT22;13349;50.984;5.822;2023-12-20T06:13:37;5.70;99.90
24450;DHT22;13349;50.984;5.822;2023-12-20T06:16:04;5.80;99.90
24450;DHT22;13349;50.984;5.822;2023-12-20T06:18:31;5.80;99.90
24450;DHT22;13349;50.984;5.822;2023-12-20T06:20:58;5.80;99.90
24450;DHT22;13349;50.984;5.822;2023-12-20T06:23:26;5.80;99.90
24450;DHT22;13349;50.984;5.822;2023-12-20T06:25:53;5.70;99.90
24450;DHT22;13349;50.984;5.822;2023-12-20T06:28:20;5.70;99.90
24450;DHT22;13349;50.984;5.822;2023-12-20T06:30:47;5.80;99.90
24450;DHT22;13349;50.984;5.822;2023-12-20T06:33:15;5.80;99.90
24450;DHT22;13349;50.984;5.822;2023-12-20T06:35:44;5.70;99.90
24450;DHT22;13349;50.984;5.822;2023-12-20T06:38:11;5.70;99.90
24450;DHT22;13349;50.984;5.822;2023-12-20T06:40:39;5.60;99.90
24450;DHT22;13349;50.984;5.822;2023-12-20T06:43:08;5.50;99.90
24450;DHT22;13349;50.984;5.822;2023-12-20T06:45:35;5.50;99.90
24450;DHT22;13349;50.984;5.822;2023-12-20T06:48:02;5.50;99.90
24450;DHT22;13349;50.984;5.822;2023-12-20T06:50:29;5.50;99.90
24450;DHT22;13349;50.984;5.822;2023-12-20T06:52:56;5.50;99.90
24450;DHT22;13349;50.984;5.822;2023-12-20T06:55:23;5.50;99.90
24450;DHT22;13349;50.984;5.822;2023-12-20T06:57:51;5.50;99.90
24450;DHT22;13349;50.984;5.822;2023-12-20T07:00:18;5.40;99.90
24450;DHT22;13349;50.984;5.822;2023-12-20T07:02:46;5.40;99.90
24450;DHT22;13349;50.984;5.822;2023-12-20T07:05:15;5.40;99.90
24450;DHT22;13349;50.984;5.822;2023-12-20T07:07:42;5.40;99.90
24450;DHT22;13349;50.984;5.822;2023-12-20T07:10:09;5.40;99.90
24450;DHT22;13349;50.984;5.822;2023-12-20T07:12:36;5.40;99.90
24450;DHT22;13349;50.984;5.822;2023-12-20T07:15:05;5.30;99.90
24450;DHT22;13349;50.984;5.822;2023-12-20T07:17:32;5.20;99.90
24450;DHT22;13349;50.984;5.822;2023-12-20T07:19:59;5.30;99.90
24450;DHT22;13349;50.984;5.822;2023-12-20T07:22:29;5.20;99.90
24450;DHT22;13349;50.984;5.822;2023-12-20T07:24:57;5.20;99.90
24450;DHT22;13349;50.984;5.822;2023-12-20T07:27:24;5.10;99.90
24450;DHT22;13349;50.984;5.822;2023-12-20T07:29:51;5.20;99.90
24450;DHT22;13349;50.984;5.822;2023-12-20T07:32:19;5.20;99.90
24450;DHT22;13349;50.984;5.822;2023-12-20T07:34:46;5.20;99.90
24450;DHT22;13349;50.984;5.822;2023-12-20T07:37:13;5.30;99.90
24450;DHT22;13349;50.984;5.822;2023-12-20T07:39:40;5.30;99.90
24450;DHT22;13349;50.984;5.822;2023-12-20T07:42:07;5.20;99.90
24450;DHT22;13349;50.984;5.822;2023-12-20T07:44:34;5.30;99.90
24450;DHT22;13349;50.984;5.822;2023-12-20T07:47:01;5.30;99.90
24450;DHT22;13349;50.984;5.822;2023-12-20T07:49:30;5.30;99.90
24450;DHT22;13349;50.984;5.822;2023-12-20T07:51:57;5.20;99.90
24450;DHT22;13349;50.984;5.822;2023-12-20T07:54:24;5.20;99.90
24450;DHT22;13349;50.984;5.822;2023-12-20T07:56:51;5.10;99.90
24450;DHT22;13349;50.984;5.822;2023-12-20T07:59:17;5.20;99.90
24450;DHT22;13349;50.984;5.822;2023-12-20T08:01:44;5.40;99.90
24450;DHT22;13349;50.984;5.822;2023-12-20T08:04:11;5.30;99.90
24450;DHT22;13349;50.984;5.822;2023-12-20T08:06:39;5.30;99.90
24450;DHT22;13349;50.984;5.822;2023-12-20T08:09:06;5.20;99.90
24450;DHT22;13349;50.984;5.822;2023-12-20T08:11:33;5.40;99.90
24450;DHT22;13349;50.984;5.822;2023-12-20T08:14:00;5.30;99.90
24450;DHT22;13349;50.984;5.822;2023-12-20T08:16:27;5.40;99.90
24450;DHT22;13349;50.984;5.822;2023-12-20T08:18:54;5.40;99.90
24450;DHT22;13349;50.984;5.822;2023-12-20T08:21:21;5.30;99.90
24450;DHT22;13349;50.984;5.822;2023-12-20T08:23:49;5.20;99.90
24450;DHT22;13349;50.984;5.822;2023-12-20T08:26:18;5.20;99.90
24450;DHT22;13349;50.984;5.822;2023-12-20T08:28:45;5.20;99.90
24450;DHT22;13349;50.984;5.822;2023-12-20T08:31:13;5.30;99.90
24450;DHT22;13349;50.984;5.822;2023-12-20T08:33:40;5.40;99.90
24450;DHT22;13349;50.984;5.822;2023-12-20T08:36:07;5.40;99.90
24450;DHT22;13349;50.984;5.822;2023-12-20T08:38:34;5.40;99.90
24450;DHT22;13349;50.984;5.822;2023-12-20T08:41:03;5.50;99.90
24450;DHT22;13349;50.984;5.822;2023-12-20T08:43:30;5.60;99.90
24450;DHT22;13349;50.984;5.822;2023-12-20T08:45:57;5.60;99.90
24450;DHT22;13349;50.984;5.822;2023-12-20T08:48:24;5.70;99.90
24450;DHT22;13349;50.984;5.822;2023-12-20T08:50:51;5.70;99.90
24450;DHT22;13349;50.984;5.822;2023-12-20T08:53:18;5.60;99.90
24450;DHT22;13349;50.984;5.822;2023-12-20T08:55:45;5.60;99.90
24450;DHT22;13349;50.984;5.822;2023-12-20T08:58:13;5.60;99.90
24450;DHT22;13349;50.984;5.822;2023-12-20T09:00:40;5.60;99.90
24450;DHT22;13349;50.984;5.822;2023-12-20T09:03:07;5.70;99.90
24450;DHT22;13349;50.984;5.822;2023-12-20T09:05:34;5.80;99.90
24450;DHT22;13349;50.984;5.822;2023-12-20T09:08:00;5.90;99.90
24450;DHT22;13349;50.984;5.822;2023-12-20T09:10:27;6.10;99.90
24450;DHT22;13349;50.984;5.822;2023-12-20T09:12:55;6.10;99.90
24450;DHT22;13349;50.984;5.822;2023-12-20T09:15:24;6.00;99.90
24450;DHT22;13349;50.984;5.822;2023-12-20T09:17:51;6.00;99.90
24450;DHT22;13349;50.984;5.822;2023-12-20T09:20:18;6.10;99.90
24450;DHT22;13349;50.984;5.822;2023-12-20T09:22:45;6.30;99.90
24450;DHT22;13349;50.984;5.822;2023-12-20T09:25:11;6.20;99.90
24450;DHT22;13349;50.984;5.822;2023-12-20T09:27:38;6.40;99.90
24450;DHT22;13349;50.984;5.822;2023-12-20T09:30:05;6.70;99.90
24450;DHT22;13349;50.984;5.822;2023-12-20T09:32:34;6.70;99.90
24450;DHT22;13349;50.984;5.822;2023-12-20T09:35:01;6.60;99.90
24450;DHT22;13349;50.984;5.822;2023-12-20T09:37:28;6.70;99.90
24450;DHT22;13349;50.984;5.822;2023-12-20T09:39:55;6.80;99.90
24450;DHT22;13349;50.984;5.822;2023-12-20T09:42:23;6.90;99.90
24450;DHT22;13349;50.984;5.822;2023-12-20T09:44:51;6.70;99.90
24450;DHT22;13349;50.984;5.822;2023-12-20T09:47:18;6.80;99.90
24450;DHT22;13349;50.984;5.822;2023-12-20T09:49:48;6.70;99.90
24450;DHT22;13349;50.984;5.822;2023-12-20T09:52:15;6.60;99.90
24450;DHT22;13349;50.984;5.822;2023-12-20T09:54:44;7.00;99.90
24450;DHT22;13349;50.984;5.822;2023-12-20T09:57:12;7.20;99.90
24450;DHT22;13349;50.984;5.822;2023-12-20T09:59:39;7.00;99.90
24450;DHT22;13349;50.984;5.822;2023-12-20T10:02:07;6.90;99.90
24450;DHT22;13349;50.984;5.822;2023-12-20T10:04:37;6.90;99.90
24450;DHT22;13349;50.984;5.822;2023-12-20T10:07:05;7.00;99.90
24450;DHT22;13349;50.984;5.822;2023-12-20T10:09:32;7.30;99.90
24450;DHT22;13349;50.984;5.822;2023-12-20T10:12:00;7.20;99.90
24450;DHT22;13349;50.984;5.822;2023-12-20T10:14:27;7.10;99.90
24450;DHT22;13349;50.984;5.822;2023-12-20T10:16:54;7.00;99.90
24450;DHT22;13349;50.984;5.822;2023-12-20T10:19:28;6.90;99.90
24450;DHT22;13349;50.984;5.822;2023-12-20T10:21:55;6.90;99.90
24450;DHT22;13349;50.984;5.822;2023-12-20T10:24:23;6.90;99.90
24450;DHT22;13349;50.984;5.822;2023-12-20T10:27:00;7.00;99.90
24450;DHT22;13349;50.984;5.822;2023-12-20T10:29:31;6.90;99.90
24450;DHT22;13349;50.984;5.822;2023-12-20T10:31:57;6.90;99.90
24450;DHT22;13349;50.984;5.822;2023-12-20T10:34:24;6.90;99.90
24450;DHT22;13349;50.984;5.822;2023-12-20T10:36:51;6.90;99.90
24450;DHT22;13349;50.984;5.822;2023-12-20T10:39:19;6.90;99.90
24450;DHT22;13349;50.984;5.822;2023-12-20T10:41:48;6.90;99.90
24450;DHT22;13349;50.984;5.822;2023-12-20T10:44:15;6.90;99.90
24450;DHT22;13349;50.984;5.822;2023-12-20T10:46:42;6.90;99.90
24450;DHT22;13349;50.984;5.822;2023-12-20T10:49:17;7.00;99.90
24450;DHT22;13349;50.984;5.822;2023-12-20T10:51:44;7.00;99.90
24450;DHT22;13349;50.984;5.822;2023-12-20T10:54:12;7.00;99.90
24450;DHT22;13349;50.984;5.822;2023-12-20T10:56:38;7.00;99.90
24450;DHT22;13349;50.984;5.822;2023-12-20T10:59:07;7.10;99.90
24450;DHT22;13349;50.984;5.822;2023-12-20T11:01:37;7.30;99.90
24450;DHT22;13349;50.984;5.822;2023-12-20T11:04:05;7.50;99.90
24450;DHT22;13349;50.984;5.822;2023-12-20T11:06:36;7.70;99.90
24450;DHT22;13349;50.984;5.822;2023-12-20T11:09:10;7.70;99.90
24450;DHT22;13349;50.984;5.822;2023-12-20T11:11:42;7.60;99.90
24450;DHT22;13349;50.984;5.822;2023-12-20T11:14:14;7.40;99.90
24450;DHT22;13349;50.984;5.822;2023-12-20T11:16:42;7.40;99.90
24450;DHT22;13349;50.984;5.822;2023-12-20T11:19:10;7.40;99.90
24450;DHT22;13349;50.984;5.822;2023-12-20T11:21:39;7.40;99.90
24450;DHT22;13349;50.984;5.822;2023-12-20T11:24:06;7.40;99.90
24450;DHT22;13349;50.984;5.822;2023-12-20T11:26:33;7.40;99.90
24450;DHT22;13349;50.984;5.822;2023-12-20T11:31:43;7.50;99.90
24450;DHT22;13349;50.984;5.822;2023-12-20T11:34:12;7.40;99.90
24450;DHT22;13349;50.984;5.822;2023-12-20T11:36:40;7.50;99.90
24450;DHT22;13349;50.984;5.822;2023-12-20T11:39:07;7.50;99.90
24450;DHT22;13349;50.984;5.822;2023-12-20T11:41:36;7.50;99.90
24450;DHT22;13349;50.984;5.822;2023-12-20T11:44:04;7.50;99.90
24450;DHT22;13349;50.984;5.822;2023-12-20T11:46:31;7.40;99.90
24450;DHT22;13349;50.984;5.822;2023-12-20T11:49:01;7.40;99.90
24450;DHT22;13349;50.984;5.822;2023-12-20T11:51:28;7.40;99.90
24450;DHT22;13349;50.984;5.822;2023-12-20T11:53:55;7.50;99.90
24450;DHT22;13349;50.984;5.822;2023-12-20T11:56:22;7.40;99.90
24450;DHT22;13349;50.984;5.822;2023-12-20T11:58:49;7.40;99.90
24450;DHT22;13349;50.984;5.822;2023-12-20T12:01:16;7.30;99.90
24450;DHT22;13349;50.984;5.822;2023-12-20T12:03:43;7.30;99.90
24450;DHT22;13349;50.984;5.822;2023-12-20T12:06:11;7.30;99.90
24450;DHT22;13349;50.984;5.822;2023-12-20T12:08:39;7.20;99.90
24450;DHT22;13349;50.984;5.822;2023-12-20T12:11:06;7.20;99.90
24450;DHT22;13349;50.984;5.822;2023-12-20T12:13:33;7.20;99.90
24450;DHT22;13349;50.984;5.822;2023-12-20T12:16:00;7.10;99.90
24450;DHT22;13349;50.984;5.822;2023-12-20T12:18:27;7.00;99.90
24450;DHT22;13349;50.984;5.822;2023-12-20T12:20:59;7.00;99.90
24450;DHT22;13349;50.984;5.822;2023-12-20T12:23:28;6.90;99.90
24450;DHT22;13349;50.984;5.822;2023-12-20T12:25:55;6.90;99.90
24450;DHT22;13349;50.984;5.822;2023-12-20T12:28:25;6.90;99.90
24450;DHT22;13349;50.984;5.822;2023-12-20T12:30:57;6.90;99.90
24450;DHT22;13349;50.984;5.822;2023-12-20T12:33:24;6.80;99.90
24450;DHT22;13349;50.984;5.822;2023-12-20T12:35:51;6.90;99.90
24450;DHT22;13349;50.984;5.822;2023-12-20T12:38:19;6.90;99.90
24450;DHT22;13349;50.984;5.822;2023-12-20T12:40:48;7.00;99.90
24450;DHT22;13349;50.984;5.822;2023-12-20T12:43:15;7.10;99.90
24450;DHT22;13349;50.984;5.822;2023-12-20T12:45:42;7.10;99.90
24450;DHT22;13349;50.984;5.822;2023-12-20T12:48:09;7.10;99.90
24450;DHT22;13349;50.984;5.822;2023-12-20T12:50:36;7.10;99.90
24450;DHT22;13349;50.984;5.822;2023-12-20T12:53:03;7.20;99.90
24450;DHT22;13349;50.984;5.822;2023-12-20T12:55:30;7.20;99.90
24450;DHT22;13349;50.984;5.822;2023-12-20T12:57:59;7.20;99.90
24450;DHT22;13349;50.984;5.822;2023-12-20T13:00:26;7.20;99.90
24450;DHT22;13349;50.984;5.822;2023-12-20T13:02:53;7.20;99.90
24450;DHT22;13349;50.984;5.822;2023-12-20T13:05:20;7.20;99.90
24450;DHT22;13349;50.984;5.822;2023-12-20T13:07:46;7.10;99.90
24450;DHT22;13349;50.984;5.822;2023-12-20T13:10:13;7.10;99.90
24450;DHT22;13349;50.984;5.822;2023-12-20T13:12:42;7.10;99.90
24450;DHT22;13349;50.984;5.822;2023-12-20T13:15:11;7.10;99.90
24450;DHT22;13349;50.984;5.822;2023-12-20T13:17:38;7.10;99.90
24450;DHT22;13349;50.984;5.822;2023-12-20T13:20:06;7.20;99.90
24450;DHT22;13349;50.984;5.822;2023-12-20T13:22:33;7.20;99.90
24450;DHT22;13349;50.984;5.822;2023-12-20T13:25:00;7.20;99.90
24450;DHT22;13349;50.984;5.822;2023-12-20T13:27:28;7.30;99.90
24450;DHT22;13349;50.984;5.822;2023-12-20T13:29:55;7.30;99.90
24450;DHT22;13349;50.984;5.822;2023-12-20T13:32:23;7.30;99.90
24450;DHT22;13349;50.984;5.822;2023-12-20T13:34:50;7.30;99.90
24450;DHT22;13349;50.984;5.822;2023-12-20T13:37:17;7.30;99.90
24450;DHT22;13349;50.984;5.822;2023-12-20T13:39:44;7.40;99.90
24450;DHT22;13349;50.984;5.822;2023-12-20T13:42:11;7.50;99.90
24450;DHT22;13349;50.984;5.822;2023-12-20T13:44:38;7.50;99.90
24450;DHT22;13349;50.984;5.822;2023-12-20T13:47:05;7.50;99.90
24450;DHT22;13349;50.984;5.822;2023-12-20T13:49:33;7.50;99.90
24450;DHT22;13349;50.984;5.822;2023-12-20T13:52:00;7.50;99.90
24450;DHT22;13349;50.984;5.822;2023-12-20T13:54:29;7.50;99.90
24450;DHT22;13349;50.984;5.822;2023-12-20T13:56:56;7.50;99.90
24450;DHT22;13349;50.984;5.822;2023-12-20T13:59:23;7.40;99.90
24450;DHT22;13349;50.984;5.822;2023-12-20T14:01:51;7.40;99.90
24450;DHT22;13349;50.984;5.822;2023-12-20T14:04:18;7.40;99.90
24450;DHT22;13349;50.984;5.822;2023-12-20T14:06:47;7.40;99.90
24450;DHT22;13349;50.984;5.822;2023-12-20T14:09:13;7.40;99.90
24450;DHT22;13349;50.984;5.822;2023-12-20T14:11:40;7.40;99.90
24450;DHT22;13349;50.984;5.822;2023-12-20T14:14:08;7.40;99.90
24450;DHT22;13349;50.984;5.822;2023-12-20T14:16:35;7.40;99.90
24450;DHT22;13349;50.984;5.822;2023-12-20T14:19:03;7.40;99.90
24450;DHT22;13349;50.984;5.822;2023-12-20T14:21:32;7.30;99.90
24450;DHT22;13349;50.984;5.822;2023-12-20T14:24:01;7.30;99.90
24450;DHT22;13349;50.984;5.822;2023-12-20T14:26:29;7.40;99.90
24450;DHT22;13349;50.984;5.822;2023-12-20T14:28:56;7.40;99.90
24450;DHT22;13349;50.984;5.822;2023-12-20T14:31:23;7.40;99.90
24450;DHT22;13349;50.984;5.822;2023-12-20T14:33:50;7.50;99.90
24450;DHT22;13349;50.984;5.822;2023-12-20T14:36:18;7.50;99.90
24450;DHT22;13349;50.984;5.822;2023-12-20T14:38:46;7.50;99.90
24450;DHT22;13349;50.984;5.822;2023-12-20T14:41:17;7.50;99.90
24450;DHT22;13349;50.984;5.822;2023-12-20T14:43:44;7.50;99.90
24450;DHT22;13349;50.984;5.822;2023-12-20T14:46:12;7.50;99.90
24450;DHT22;13349;50.984;5.822;2023-12-20T14:48:39;7.60;99.90
24450;DHT22;13349;50.984;5.822;2023-12-20T14:51:06;7.50;99.90
24450;DHT22;13349;50.984;5.822;2023-12-20T14:53:33;7.50;99.90
24450;DHT22;13349;50.984;5.822;2023-12-20T14:56:02;7.50;99.90
24450;DHT22;13349;50.984;5.822;2023-12-20T14:58:31;7.50;99.90
24450;DHT22;13349;50.984;5.822;2023-12-20T15:00:58;7.60;99.90
24450;DHT22;13349;50.984;5.822;2023-12-20T15:03:25;7.60;99.90
24450;DHT22;13349;50.984;5.822;2023-12-20T15:05:52;7.60;99.90
24450;DHT22;13349;50.984;5.822;2023-12-20T15:08:19;7.60;99.90
24450;DHT22;13349;50.984;5.822;2023-12-20T15:10:47;7.60;99.90
24450;DHT22;13349;50.984;5.822;2023-12-20T15:13:14;7.50;99.90
24450;DHT22;13349;50.984;5.822;2023-12-20T15:15:42;7.50;99.90
24450;DHT22;13349;50.984;5.822;2023-12-20T15:18:09;7.50;99.90
24450;DHT22;13349;50.984;5.822;2023-12-20T15:20:36;7.60;99.90
24450;DHT22;13349;50.984;5.822;2023-12-20T15:23:03;7.60;99.90
24450;DHT22;13349;50.984;5.822;2023-12-20T15:25:32;7.60;99.90
24450;DHT22;13349;50.984;5.822;2023-12-20T15:27:59;7.70;99.90
24450;DHT22;13349;50.984;5.822;2023-12-20T15:30:28;7.60;99.90
24450;DHT22;13349;50.984;5.822;2023-12-20T15:32:56;7.60;99.90
24450;DHT22;13349;50.984;5.822;2023-12-20T15:35:23;7.60;99.90
24450;DHT22;13349;50.984;5.822;2023-12-20T15:37:50;7.60;99.90
24450;DHT22;13349;50.984;5.822;2023-12-20T15:40:17;7.60;99.90
24450;DHT22;13349;50.984;5.822;2023-12-20T15:42:44;7.60;99.90
24450;DHT22;13349;50.984;5.822;2023-12-20T15:45:11;7.60;99.90
24450;DHT22;13349;50.984;5.822;2023-12-20T15:47:38;7.60;99.90